sensor_id;sensor_type;location;lat;lon;timestamp;temperature;humidity
26707;DHT22;14319;49.422;10.934;2023-04-24T00:01:08;11.20;99.90
26707;DHT22;14319;49.422;10.934;2023-04-24T00:03:09;11.20;99.90
26707;DHT22;14319;49.422;10.934;2023-04-24T00:05:09;11.30;99.90
26707;DHT22;14319;49.422;10.934;2023-04-24T00:07:11;11.20;99.90
26707;DHT22;14319;49.422;10.934;2023-04-24T00:09:11;11.20;99.90
26707;DHT22;14319;49.422;10.934;2023-04-24T00:11:12;11.20;99.90
26707;DHT22;14319;49.422;10.934;2023-04-24T00:13:13;11.20;99.90
26707;DHT22;14319;49.422;10.934;2023-04-24T00:15:13;11.20;99.90
26707;DHT22;14319;49.422;10.934;2023-04-24T00:17:14;11.10;99.90
26707;DHT22;14319;49.422;10.934;2023-04-24T00:19:14;11.10;99.90
26707;DHT22;14319;49.422;10.934;2023-04-24T00:21:15;11.10;99.90
26707;DHT22;14319;49.422;10.934;2023-04-24T00:23:18;11.10;99.90
26707;DHT22;14319;49.422;10.934;2023-04-24T00:25:18;11.10;99.90
26707;DHT22;14319;49.422;10.934;2023-04-24T00:27:19;11.10;99.90
26707;DHT22;14319;49.422;10.934;2023-04-24T00:29:19;11.00;99.90
26707;DHT22;14319;49.422;10.934;2023-04-24T00:31:20;11.00;99.90
26707;DHT22;14319;49.422;10.934;2023-04-24T00:33:20;11.00;99.90
26707;DHT22;14319;49.422;10.934;2023-04-24T00:35:21;11.00;99.90
26707;DHT22;14319;49.422;10.934;2023-04-24T00:37:22;11.00;99.90
26707;DHT22;14319;49.422;10.934;2023-04-24T00:39:22;11.00;99.90
26707;DHT22;14319;49.422;10.934;2023-04-24T00:41:25;10.90;99.90
26707;DHT22;14319;49.422;10.934;2023-04-24T00:43:25;10.90;99.90
26707;DHT22;14319;49.422;10.934;2023-04-24T00:45:26;10.90;99.90
26707;DHT22;14319;49.422;10.934;2023-04-24T00:47:27;11.00;99.90
26707;DHT22;14319;49.422;10.934;2023-04-24T00:49:28;11.00;99.90
26707;DHT22;14319;49.422;10.934;2023-04-24T00:51:29;10.80;99.90
26707;DHT22;14319;49.422;10.934;2023-04-24T00:53:31;10.90;99.90
26707;DHT22;14319;49.422;10.934;2023-04-24T00:55:32;10.90;99.90
26707;DHT22;14319;49.422;10.934;2023-04-24T00:57:32;11.00;99.90
26707;DHT22;14319;49.422;10.934;2023-04-24T00:59:33;11.00;99.90
26707;DHT22;14319;49.422;10.934;2023-04-24T01:01:35;11.10;99.90
26707;DHT22;14319;49.422;10.934;2023-04-24T01:03:35;11.00;99.90
26707;DHT22;14319;49.422;10.934;2023-04-24T01:05:37;11.00;99.90
26707;DHT22;14319;49.422;10.934;2023-04-24T01:07:39;11.10;99.90
26707;DHT22;14319;49.422;10.934;2023-04-24T01:09:40;11.00;99.90
26707;DHT22;14319;49.422;10.934;2023-04-24T01:11:44;10.90;99.90
26707;DHT22;14319;49.422;10.934;2023-04-24T01:13:46;10.90;99.90
26707;DHT22;14319;49.422;10.934;2023-04-24T01:15:47;10.80;99.90
26707;DHT22;14319;49.422;10.934;2023-04-24T01:17:48;10.70;99.90
26707;DHT22;14319;49.422;10.934;2023-04-24T01:19:49;10.70;99.90
26707;DHT22;14319;49.422;10.934;2023-04-24T01:21:51;10.60;99.90
26707;DHT22;14319;49.422;10.934;2023-04-24T01:23:53;10.60;99.90
26707;DHT22;14319;49.422;10.934;2023-04-24T01:25:56;10.60;99.90
26707;DHT22;14319;49.422;10.934;2023-04-24T01:27:56;10.40;99.90
26707;DHT22;14319;49.422;10.934;2023-04-24T01:29:57;10.50;99.90
26707;DHT22;14319;49.422;10.934;2023-04-24T01:31:58;10.60;99.90
26707;DHT22;14319;49.422;10.934;2023-04-24T01:33:59;10.50;99.90
26707;DHT22;14319;49.422;10.934;2023-04-24T01:36:00;10.50;99.90
26707;DHT22;14319;49.422;10.934;2023-04-24T01:38:01;10.50;99.90
26707;DHT22;14319;49.422;10.934;2023-04-24T01:40:02;10.60;99.90
26707;DHT22;14319;49.422;10.934;2023-04-24T01:42:05;10.60;99.90
26707;DHT22;14319;49.422;10.934;2023-04-24T01:44:06;10.60;99.90
26707;DHT22;14319;49.422;10.934;2023-04-24T01:46:06;10.60;99.90
26707;DHT22;14319;49.422;10.934;2023-04-24T01:48:11;10.50;99.90
26707;DHT22;14319;49.422;10.934;2023-04-24T01:50:12;10.60;99.90
26707;DHT22;14319;49.422;10.934;2023-04-24T01:52:13;10.50;99.90
26707;DHT22;14319;49.422;10.934;2023-04-24T01:54:14;10.50;99.90
26707;DHT22;14319;49.422;10.934;2023-04-24T01:56:14;10.40;99.90
26707;DHT22;14319;49.422;10.934;2023-04-24T01:58:16;10.40;99.90
26707;DHT22;14319;49.422;10.934;2023-04-24T02:00:17;10.50;99.90
26707;DHT22;14319;49.422;10.934;2023-04-24T02:02:19;10.50;99.90
26707;DHT22;14319;49.422;10.934;2023-04-24T02:04:21;10.40;99.90
26707;DHT22;14319;49.422;10.934;2023-04-24T02:06:22;10.40;99.90
26707;DHT22;14319;49.422;10.934;2023-04-24T02:08:22;10.20;99.90
26707;DHT22;14319;49.422;10.934;2023-04-24T02:10:23;10.30;99.90
26707;DHT22;14319;49.422;10.934;2023-04-24T02:12:25;10.20;99.90
26707;DHT22;14319;49.422;10.934;2023-04-24T02:14:26;9.90;99.90
26707;DHT22;14319;49.422;10.934;2023-04-24T02:16:28;9.90;99.90
26707;DHT22;14319;49.422;10.934;2023-04-24T02:18:32;10.10;99.90
26707;DHT22;14319;49.422;10.934;2023-04-24T02:20:33;10.20;99.90
26707;DHT22;14319;49.422;10.934;2023-04-24T02:22:35;10.30;99.90
26707;DHT22;14319;49.422;10.934;2023-04-24T02:24:36;10.40;99.90
26707;DHT22;14319;49.422;10.934;2023-04-24T02:26:37;10.40;99.90
26707;DHT22;14319;49.422;10.934;2023-04-24T02:28:38;10.40;99.90
26707;DHT22;14319;49.422;10.934;2023-04-24T02:30:38;10.40;99.90
26707;DHT22;14319;49.422;10.934;2023-04-24T02:32:39;10.50;99.90
26707;DHT22;14319;49.422;10.934;2023-04-24T02:34:39;10.50;99.90
26707;DHT22;14319;49.422;10.934;2023-04-24T02:36:40;10.40;99.90
26707;DHT22;14319;49.422;10.934;2023-04-24T02:38:42;10.40;99.90
26707;DHT22;14319;49.422;10.934;2023-04-24T02:40:43;10.40;99.90
26707;DHT22;14319;49.422;10.934;2023-04-24T02:42:44;10.40;99.90
26707;DHT22;14319;49.422;10.934;2023-04-24T02:44:45;10.40;99.90
26707;DHT22;14319;49.422;10.934;2023-04-24T02:46:46;10.40;99.90
26707;DHT22;14319;49.422;10.934;2023-04-24T02:48:47;10.40;99.90
26707;DHT22;14319;49.422;10.934;2023-04-24T02:50:47;10.50;99.90
26707;DHT22;14319;49.422;10.934;2023-04-24T02:52:48;10.40;99.90
26707;DHT22;14319;49.422;10.934;2023-04-24T02:54:49;10.50;99.90
26707;DHT22;14319;49.422;10.934;2023-04-24T02:56:49;10.50;99.90
26707;DHT22;14319;49.422;10.934;2023-04-24T02:58:50;10.50;99.90
26707;DHT22;14319;49.422;10.934;2023-04-24T03:00:54;10.50;99.90
26707;DHT22;14319;49.422;10.934;2023-04-24T03:02:56;10.50;99.90
26707;DHT22;14319;49.422;10.934;2023-04-24T03:04:56;10.50;99.90
26707;DHT22;14319;49.422;10.934;2023-04-24T03:06:57;10.50;99.90
26707;DHT22;14319;49.422;10.934;2023-04-24T03:08:58;10.40;99.90
26707;DHT22;14319;49.422;10.934;2023-04-24T03:11:00;10.40;99.90
26707;DHT22;14319;49.422;10.934;2023-04-24T03:13:00;10.40;99.90
26707;DHT22;14319;49.422;10.934;2023-04-24T03:15:01;10.40;99.90
26707;DHT22;14319;49.422;10.934;2023-04-24T03:17:02;10.40;99.90
26707;DHT22;14319;49.422;10.934;2023-04-24T03:19:02;10.40;99.90
26707;DHT22;14319;49.422;10.934;2023-04-24T03:21:06;10.40;99.90
26707;DHT22;14319;49.422;10.934;2023-04-24T03:23:06;10.40;99.90
26707;DHT22;14319;49.422;10.934;2023-04-24T03:25:08;10.40;99.90
26707;DHT22;14319;49.422;10.934;2023-04-24T03:27:09;10.40;99.90
26707;DHT22;14319;49.422;10.934;2023-04-24T03:29:48;10.40;99.90
26707;DHT22;14319;49.422;10.934;2023-04-24T03:31:54;10.40;99.90
26707;DHT22;14319;49.422;10.934;2023-04-24T03:33:55;10.40;99.90
26707;DHT22;14319;49.422;10.934;2023-04-24T03:35:55;10.30;99.90
26707;DHT22;14319;49.422;10.934;2023-04-24T03:37:56;10.30;99.90
26707;DHT22;14319;49.422;10.934;2023-04-24T03:40:23;10.30;99.90
26707;DHT22;14319;49.422;10.934;2023-04-24T03:42:23;10.30;99.90
26707;DHT22;14319;49.422;10.934;2023-04-24T03:44:29;10.20;99.90
26707;DHT22;14319;49.422;10.934;2023-04-24T03:46:30;10.30;99.90
26707;DHT22;14319;49.422;10.934;2023-04-24T03:48:33;10.40;99.90
26707;DHT22;14319;49.422;10.934;2023-04-24T03:50:35;10.40;99.90
26707;DHT22;14319;49.422;10.934;2023-04-24T03:52:36;10.30;99.90
26707;DHT22;14319;49.422;10.934;2023-04-24T03:54:37;10.30;99.90
26707;DHT22;14319;49.422;10.934;2023-04-24T03:56:39;10.30;99.90
26707;DHT22;14319;49.422;10.934;2023-04-24T03:58:40;10.30;99.90
26707;DHT22;14319;49.422;10.934;2023-04-24T04:00:40;10.20;99.90
26707;DHT22;14319;49.422;10.934;2023-04-24T04:03:01;10.20;99.90
26707;DHT22;14319;49.422;10.934;2023-04-24T04:05:02;10.10;99.90
26707;DHT22;14319;49.422;10.934;2023-04-24T04:07:02;10.00;99.90
26707;DHT22;14319;49.422;10.934;2023-04-24T04:09:04;10.00;99.90
26707;DHT22;14319;49.422;10.934;2023-04-24T04:11:05;10.10;99.90
26707;DHT22;14319;49.422;10.934;2023-04-24T04:13:06;10.10;99.90
26707;DHT22;14319;49.422;10.934;2023-04-24T04:15:07;10.10;99.90
26707;DHT22;14319;49.422;10.934;2023-04-24T04:17:08;10.10;99.90
26707;DHT22;14319;49.422;10.934;2023-04-24T04:19:08;10.20;99.90
26707;DHT22;14319;49.422;10.934;2023-04-24T04:21:09;10.00;99.90
26707;DHT22;14319;49.422;10.934;2023-04-24T04:23:10;10.00;99.90
26707;DHT22;14319;49.422;10.934;2023-04-24T04:25:21;10.00;99.90
26707;DHT22;14319;49.422;10.934;2023-04-24T04:27:23;10.10;99.90
26707;DHT22;14319;49.422;10.934;2023-04-24T04:29:32;10.10;99.90
26707;DHT22;14319;49.422;10.934;2023-04-24T04:31:34;10.10;99.90
26707;DHT22;14319;49.422;10.934;2023-04-24T04:33:39;10.00;99.90
26707;DHT22;14319;49.422;10.934;2023-04-24T04:35:41;10.10;99.90
26707;DHT22;14319;49.422;10.934;2023-04-24T04:37:43;10.10;99.90
26707;DHT22;14319;49.422;10.934;2023-04-24T04:39:51;10.10;99.90
26707;DHT22;14319;49.422;10.934;2023-04-24T04:41:56;10.10;99.90
26707;DHT22;14319;49.422;10.934;2023-04-24T04:44:03;10.20;99.90
26707;DHT22;14319;49.422;10.934;2023-04-24T04:46:06;10.20;99.90
26707;DHT22;14319;49.422;10.934;2023-04-24T04:48:09;10.20;99.90
26707;DHT22;14319;49.422;10.934;2023-04-24T04:50:12;10.10;99.90
26707;DHT22;14319;49.422;10.934;2023-04-24T04:52:14;10.10;99.90
26707;DHT22;14319;49.422;10.934;2023-04-24T04:54:15;10.20;99.90
26707;DHT22;14319;49.422;10.934;2023-04-24T04:56:16;10.10;99.90
26707;DHT22;14319;49.422;10.934;2023-04-24T04:58:19;10.10;99.90
26707;DHT22;14319;49.422;10.934;2023-04-24T05:00:24;10.10;99.90
26707;DHT22;14319;49.422;10.934;2023-04-24T05:02:26;10.10;99.90
26707;DHT22;14319;49.422;10.934;2023-04-24T05:04:27;10.00;99.90
26707;DHT22;14319;49.422;10.934;2023-04-24T05:06:28;10.00;99.90
26707;DHT22;14319;49.422;10.934;2023-04-24T05:08:29;10.10;99.90
26707;DHT22;14319;49.422;10.934;2023-04-24T05:10:30;10.10;99.90
26707;DHT22;14319;49.422;10.934;2023-04-24T05:12:31;10.20;99.90
26707;DHT22;14319;49.422;10.934;2023-04-24T05:14:32;10.10;99.90
26707;DHT22;14319;49.422;10.934;2023-04-24T05:16:32;10.00;99.90
26707;DHT22;14319;49.422;10.934;2023-04-24T05:18:33;9.90;99.90
26707;DHT22;14319;49.422;10.934;2023-04-24T05:20:34;10.00;99.90
26707;DHT22;14319;49.422;10.934;2023-04-24T05:22:35;10.00;99.90
26707;DHT22;14319;49.422;10.934;2023-04-24T05:24:37;9.90;99.90
26707;DHT22;14319;49.422;10.934;2023-04-24T05:27:03;9.90;99.90
26707;DHT22;14319;49.422;10.934;2023-04-24T05:29:09;10.10;99.90
26707;DHT22;14319;49.422;10.934;2023-04-24T05:31:10;10.20;99.90
26707;DHT22;14319;49.422;10.934;2023-04-24T05:33:11;10.10;99.90
26707;DHT22;14319;49.422;10.934;2023-04-24T05:35:11;10.20;99.90
26707;DHT22;14319;49.422;10.934;2023-04-24T05:37:12;10.10;99.90
26707;DHT22;14319;49.422;10.934;2023-04-24T05:39:13;9.80;99.90
26707;DHT22;14319;49.422;10.934;2023-04-24T05:41:13;10.00;99.90
26707;DHT22;14319;49.422;10.934;2023-04-24T05:43:15;10.10;99.90
26707;DHT22;14319;49.422;10.934;2023-04-24T05:45:16;10.30;99.90
26707;DHT22;14319;49.422;10.934;2023-04-24T05:47:17;10.30;99.90
26707;DHT22;14319;49.422;10.934;2023-04-24T05:49:18;10.40;99.90
26707;DHT22;14319;49.422;10.934;2023-04-24T05:51:19;10.50;99.90
26707;DHT22;14319;49.422;10.934;2023-04-24T05:53:20;10.50;99.90
26707;DHT22;14319;49.422;10.934;2023-04-24T05:55:21;10.50;99.90
26707;DHT22;14319;49.422;10.934;2023-04-24T05:57:22;10.60;99.90
26707;DHT22;14319;49.422;10.934;2023-04-24T05:59:27;10.60;99.90
26707;DHT22;14319;49.422;10.934;2023-04-24T06:01:28;10.60;99.90
26707;DHT22;14319;49.422;10.934;2023-04-24T06:03:40;10.70;99.90
26707;DHT22;14319;49.422;10.934;2023-04-24T06:05:40;10.60;99.90
26707;DHT22;14319;49.422;10.934;2023-04-24T06:07:41;10.60;99.90
26707;DHT22;14319;49.422;10.934;2023-04-24T06:09:42;10.60;99.90
26707;DHT22;14319;49.422;10.934;2023-04-24T06:11:43;10.70;99.90
26707;DHT22;14319;49.422;10.934;2023-04-24T06:13:45;10.70;99.90
26707;DHT22;14319;49.422;10.934;2023-04-24T06:16:04;10.70;99.90
26707;DHT22;14319;49.422;10.934;2023-04-24T06:18:09;10.50;99.90
26707;DHT22;14319;49.422;10.934;2023-04-24T06:20:14;10.50;99.90
26707;DHT22;14319;49.422;10.934;2023-04-24T06:22:14;10.40;99.90
26707;DHT22;14319;49.422;10.934;2023-04-24T06:24:16;10.20;99.90
26707;DHT22;14319;49.422;10.934;2023-04-24T06:26:17;10.40;99.90
26707;DHT22;14319;49.422;10.934;2023-04-24T06:28:17;10.50;99.90
26707;DHT22;14319;49.422;10.934;2023-04-24T06:30:18;10.50;99.90
26707;DHT22;14319;49.422;10.934;2023-04-24T06:32:18;10.30;99.90
26707;DHT22;14319;49.422;10.934;2023-04-24T06:34:19;10.10;99.90
26707;DHT22;14319;49.422;10.934;2023-04-24T06:36:20;10.10;99.90
26707;DHT22;14319;49.422;10.934;2023-04-24T06:38:20;9.90;99.90
26707;DHT22;14319;49.422;10.934;2023-04-24T06:40:21;9.90;99.90
26707;DHT22;14319;49.422;10.934;2023-04-24T06:42:22;9.80;99.90
26707;DHT22;14319;49.422;10.934;2023-04-24T06:44:24;9.90;99.90
26707;DHT22;14319;49.422;10.934;2023-04-24T06:46:25;10.10;99.90
26707;DHT22;14319;49.422;10.934;2023-04-24T06:48:27;10.10;99.90
26707;DHT22;14319;49.422;10.934;2023-04-24T06:50:28;10.20;99.90
26707;DHT22;14319;49.422;10.934;2023-04-24T06:52:29;10.10;99.90
26707;DHT22;14319;49.422;10.934;2023-04-24T06:54:33;10.00;99.90
26707;DHT22;14319;49.422;10.934;2023-04-24T06:56:33;10.00;99.90
26707;DHT22;14319;49.422;10.934;2023-04-24T06:58:34;10.10;99.90
26707;DHT22;14319;49.422;10.934;2023-04-24T07:00:35;10.10;99.90
26707;DHT22;14319;49.422;10.934;2023-04-24T07:02:36;9.90;99.90
26707;DHT22;14319;49.422;10.934;2023-04-24T07:04:37;9.90;99.90
26707;DHT22;14319;49.422;10.934;2023-04-24T07:06:38;9.80;99.90
26707;DHT22;14319;49.422;10.934;2023-04-24T07:08:39;9.90;99.90
26707;DHT22;14319;49.422;10.934;2023-04-24T07:10:42;9.80;99.90
26707;DHT22;14319;49.422;10.934;2023-04-24T07:12:42;9.90;99.90
26707;DHT22;14319;49.422;10.934;2023-04-24T07:14:43;9.80;99.90
26707;DHT22;14319;49.422;10.934;2023-04-24T07:16:44;9.60;99.90
26707;DHT22;14319;49.422;10.934;2023-04-24T07:18:45;9.70;99.90
26707;DHT22;14319;49.422;10.934;2023-04-24T07:20:46;9.60;99.90
26707;DHT22;14319;49.422;10.934;2023-04-24T07:22:46;9.40;99.90
26707;DHT22;14319;49.422;10.934;2023-04-24T07:24:48;9.30;99.90
26707;DHT22;14319;49.422;10.934;2023-04-24T07:26:49;9.30;99.90
26707;DHT22;14319;49.422;10.934;2023-04-24T07:28:51;9.50;99.90
26707;DHT22;14319;49.422;10.934;2023-04-24T07:30:52;9.20;99.90
26707;DHT22;14319;49.422;10.934;2023-04-24T07:32:54;9.30;99.90
26707;DHT22;14319;49.422;10.934;2023-04-24T07:34:55;9.20;99.90
26707;DHT22;14319;49.422;10.934;2023-04-24T07:36:56;9.10;99.90
26707;DHT22;14319;49.422;10.934;2023-04-24T07:38:56;9.20;99.90
26707;DHT22;14319;49.422;10.934;2023-04-24T07:40:57;9.00;99.90
26707;DHT22;14319;49.422;10.934;2023-04-24T07:42:57;9.20;99.90
26707;DHT22;14319;49.422;10.934;2023-04-24T07:44:58;9.40;99.90
26707;DHT22;14319;49.422;10.934;2023-04-24T07:47:00;9.40;99.90
26707;DHT22;14319;49.422;10.934;2023-04-24T07:49:00;9.30;99.90
26707;DHT22;14319;49.422;10.934;2023-04-24T07:51:01;9.40;99.90
26707;DHT22;14319;49.422;10.934;2023-04-24T07:53:02;9.70;99.90
26707;DHT22;14319;49.422;10.934;2023-04-24T07:55:03;9.90;99.90
26707;DHT22;14319;49.422;10.934;2023-04-24T07:57:04;9.90;99.90
26707;DHT22;14319;49.422;10.934;2023-04-24T07:59:05;9.70;99.90
26707;DHT22;14319;49.422;10.934;2023-04-24T08:01:06;9.50;99.90
26707;DHT22;14319;49.422;10.934;2023-04-24T08:03:06;9.60;99.90
26707;DHT22;14319;49.422;10.934;2023-04-24T08:05:07;9.90;99.90
26707;DHT22;14319;49.422;10.934;2023-04-24T08:07:08;9.90;99.90
26707;DHT22;14319;49.422;10.934;2023-04-24T08:09:09;10.10;99.90
26707;DHT22;14319;49.422;10.934;2023-04-24T08:11:09;10.20;99.90
26707;DHT22;14319;49.422;10.934;2023-04-24T08:13:10;9.60;99.90
26707;DHT22;14319;49.422;10.934;2023-04-24T08:15:11;9.60;99.90
26707;DHT22;14319;49.422;10.934;2023-04-24T08:17:12;9.50;99.90
26707;DHT22;14319;49.422;10.934;2023-04-24T08:19:13;9.70;99.90
26707;DHT22;14319;49.422;10.934;2023-04-24T08:21:13;9.80;99.90
26707;DHT22;14319;49.422;10.934;2023-04-24T08:23:17;9.90;99.90
26707;DHT22;14319;49.422;10.934;2023-04-24T08:25:18;10.10;99.90
26707;DHT22;14319;49.422;10.934;2023-04-24T08:27:19;10.00;99.90
26707;DHT22;14319;49.422;10.934;2023-04-24T08:29:20;9.60;99.90
26707;DHT22;14319;49.422;10.934;2023-04-24T08:31:21;10.00;99.90
26707;DHT22;14319;49.422;10.934;2023-04-24T08:33:23;10.00;99.90
26707;DHT22;14319;49.422;10.934;2023-04-24T08:35:24;9.80;99.90
26707;DHT22;14319;49.422;10.934;2023-04-24T08:37:26;9.70;99.90
26707;DHT22;14319;49.422;10.934;2023-04-24T08:39:27;9.90;99.90
26707;DHT22;14319;49.422;10.934;2023-04-24T08:41:27;9.60;99.90
26707;DHT22;14319;49.422;10.934;2023-04-24T08:43:28;10.10;99.90
26707;DHT22;14319;49.422;10.934;2023-04-24T08:45:29;10.00;99.90
26707;DHT22;14319;49.422;10.934;2023-04-24T08:47:30;10.00;99.90
26707;DHT22;14319;49.422;10.934;2023-04-24T08:49:31;10.30;99.90
26707;DHT22;14319;49.422;10.934;2023-04-24T08:51:33;10.00;99.90
26707;DHT22;14319;49.422;10.934;2023-04-24T08:53:35;9.80;99.90
26707;DHT22;14319;49.422;10.934;2023-04-24T08:55:37;9.80;99.90
26707;DHT22;14319;49.422;10.934;2023-04-24T08:57:38;10.20;99.90
26707;DHT22;14319;49.422;10.934;2023-04-24T08:59:40;10.40;99.90
26707;DHT22;14319;49.422;10.934;2023-04-24T09:01:41;10.30;99.90
26707;DHT22;14319;49.422;10.934;2023-04-24T09:03:43;10.40;99.90
26707;DHT22;14319;49.422;10.934;2023-04-24T09:05:46;10.40;99.90
26707;DHT22;14319;49.422;10.934;2023-04-24T09:07:54;10.40;99.90
26707;DHT22;14319;49.422;10.934;2023-04-24T09:09:55;10.60;99.90
26707;DHT22;14319;49.422;10.934;2023-04-24T09:11:56;10.80;99.90
26707;DHT22;14319;49.422;10.934;2023-04-24T09:13:58;10.70;99.90
26707;DHT22;14319;49.422;10.934;2023-04-24T09:15:59;10.50;99.90
26707;DHT22;14319;49.422;10.934;2023-04-24T09:18:01;10.70;99.90
26707;DHT22;14319;49.422;10.934;2023-04-24T09:20:01;10.90;99.90
26707;DHT22;14319;49.422;10.934;2023-04-24T09:22:07;10.90;99.90
26707;DHT22;14319;49.422;10.934;2023-04-24T09:24:17;10.90;99.90
26707;DHT22;14319;49.422;10.934;2023-04-24T09:26:18;11.00;99.90
26707;DHT22;14319;49.422;10.934;2023-04-24T09:28:29;10.80;99.90
26707;DHT22;14319;49.422;10.934;2023-04-24T09:30:30;10.90;99.90
26707;DHT22;14319;49.422;10.934;2023-04-24T09:34:33;10.80;99.90
26707;DHT22;14319;49.422;10.934;2023-04-24T09:36:39;11.00;99.90
26707;DHT22;14319;49.422;10.934;2023-04-24T09:38:39;11.20;99.90
26707;DHT22;14319;49.422;10.934;2023-04-24T09:40:40;11.30;99.90
26707;DHT22;14319;49.422;10.934;2023-04-24T09:42:59;11.20;96.00
26707;DHT22;14319;49.422;10.934;2023-04-24T09:45:04;11.30;86.50
26707;DHT22;14319;49.422;10.934;2023-04-24T09:47:08;11.40;80.10
26707;DHT22;14319;49.422;10.934;2023-04-24T09:49:14;11.40;78.50
26707;DHT22;14319;49.422;10.934;2023-04-24T09:51:16;11.30;79.20
26707;DHT22;14319;49.422;10.934;2023-04-24T09:53:24;11.50;76.30
26707;DHT22;14319;49.422;10.934;2023-04-24T09:55:25;11.70;75.90
26707;DHT22;14319;49.422;10.934;2023-04-24T09:57:25;11.80;76.90
26707;DHT22;14319;49.422;10.934;2023-04-24T09:59:27;11.80;75.50
26707;DHT22;14319;49.422;10.934;2023-04-24T10:01:31;11.70;69.70
26707;DHT22;14319;49.422;10.934;2023-04-24T10:03:33;11.50;69.90
26707;DHT22;14319;49.422;10.934;2023-04-24T10:05:35;11.40;71.00
26707;DHT22;14319;49.422;10.934;2023-04-24T10:07:37;11.40;69.60
26707;DHT22;14319;49.422;10.934;2023-04-24T10:09:38;11.40;73.20
26707;DHT22;14319;49.422;10.934;2023-04-24T10:11:44;11.40;69.60
26707;DHT22;14319;49.422;10.934;2023-04-24T10:13:45;11.50;70.20
26707;DHT22;14319;49.422;10.934;2023-04-24T10:15:48;11.50;67.70
26707;DHT22;14319;49.422;10.934;2023-04-24T10:17:50;11.70;68.60
26707;DHT22;14319;49.422;10.934;2023-04-24T10:19:54;11.90;68.50
26707;DHT22;14319;49.422;10.934;2023-04-24T10:21:56;12.10;67.50
26707;DHT22;14319;49.422;10.934;2023-04-24T10:23:57;12.20;66.40
26707;DHT22;14319;49.422;10.934;2023-04-24T10:26:00;12.40;63.10
26707;DHT22;14319;49.422;10.934;2023-04-24T10:28:02;12.40;61.00
26707;DHT22;14319;49.422;10.934;2023-04-24T10:30:03;12.40;57.40
26707;DHT22;14319;49.422;10.934;2023-04-24T10:32:07;12.50;62.40
26707;DHT22;14319;49.422;10.934;2023-04-24T10:34:09;12.60;59.50
26707;DHT22;14319;49.422;10.934;2023-04-24T10:36:10;12.60;59.30
26707;DHT22;14319;49.422;10.934;2023-04-24T10:38:13;12.60;64.30
26707;DHT22;14319;49.422;10.934;2023-04-24T10:40:19;12.30;68.40
26707;DHT22;14319;49.422;10.934;2023-04-24T10:42:27;12.20;72.10
26707;DHT22;14319;49.422;10.934;2023-04-24T10:44:36;12.30;71.60
26707;DHT22;14319;49.422;10.934;2023-04-24T10:46:38;12.00;71.90
26707;DHT22;14319;49.422;10.934;2023-04-24T10:48:42;12.10;75.00
26707;DHT22;14319;49.422;10.934;2023-04-24T10:50:54;11.60;73.70
26707;DHT22;14319;49.422;10.934;2023-04-24T10:53:06;11.40;72.00
26707;DHT22;14319;49.422;10.934;2023-04-24T10:55:07;11.10;70.10
26707;DHT22;14319;49.422;10.934;2023-04-24T10:59:27;11.30;69.50
26707;DHT22;14319;49.422;10.934;2023-04-24T11:01:38;11.40;67.90
26707;DHT22;14319;49.422;10.934;2023-04-24T11:03:50;11.50;66.50
26707;DHT22;14319;49.422;10.934;2023-04-24T11:06:07;11.70;67.00
26707;DHT22;14319;49.422;10.934;2023-04-24T11:08:12;12.10;67.30
26707;DHT22;14319;49.422;10.934;2023-04-24T11:10:27;12.00;66.00
26707;DHT22;14319;49.422;10.934;2023-04-24T11:12:28;12.30;65.70
26707;DHT22;14319;49.422;10.934;2023-04-24T11:14:28;12.30;64.60
26707;DHT22;14319;49.422;10.934;2023-04-24T11:16:33;12.40;61.80
26707;DHT22;14319;49.422;10.934;2023-04-24T11:18:37;12.50;63.00
26707;DHT22;14319;49.422;10.934;2023-04-24T11:20:42;12.60;64.20
26707;DHT22;14319;49.422;10.934;2023-04-24T11:22:42;12.50;62.50
26707;DHT22;14319;49.422;10.934;2023-04-24T11:26:54;12.40;62.70
26707;DHT22;14319;49.422;10.934;2023-04-24T11:29:09;12.50;63.10
26707;DHT22;14319;49.422;10.934;2023-04-24T11:31:35;12.80;63.40
26707;DHT22;14319;49.422;10.934;2023-04-24T11:33:38;13.10;61.70
26707;DHT22;14319;49.422;10.934;2023-04-24T11:35:40;13.30;64.00
26707;DHT22;14319;49.422;10.934;2023-04-24T11:37:45;13.30;63.20
26707;DHT22;14319;49.422;10.934;2023-04-24T11:39:46;12.90;59.70
26707;DHT22;14319;49.422;10.934;2023-04-24T11:41:47;12.70;62.20
26707;DHT22;14319;49.422;10.934;2023-04-24T11:43:47;12.70;61.60
26707;DHT22;14319;49.422;10.934;2023-04-24T11:45:49;12.60;60.20
26707;DHT22;14319;49.422;10.934;2023-04-24T11:47:50;12.70;62.20
26707;DHT22;14319;49.422;10.934;2023-04-24T11:49:51;12.70;62.10
26707;DHT22;14319;49.422;10.934;2023-04-24T11:51:55;12.60;61.40
26707;DHT22;14319;49.422;10.934;2023-04-24T11:53:56;12.50;60.50
26707;DHT22;14319;49.422;10.934;2023-04-24T11:55:57;12.60;62.50
26707;DHT22;14319;49.422;10.934;2023-04-24T11:58:02;12.60;61.40
26707;DHT22;14319;49.422;10.934;2023-04-24T12:00:04;12.60;60.90
26707;DHT22;14319;49.422;10.934;2023-04-24T12:02:25;12.70;61.10
26707;DHT22;14319;49.422;10.934;2023-04-24T12:04:27;12.70;61.40
26707;DHT22;14319;49.422;10.934;2023-04-24T12:06:38;12.90;63.80
26707;DHT22;14319;49.422;10.934;2023-04-24T12:08:39;12.90;60.20
26707;DHT22;14319;49.422;10.934;2023-04-24T12:10:39;13.00;61.40
26707;DHT22;14319;49.422;10.934;2023-04-24T12:12:40;12.50;62.70
26707;DHT22;14319;49.422;10.934;2023-04-24T12:14:50;12.60;62.80
26707;DHT22;14319;49.422;10.934;2023-04-24T12:16:52;12.70;62.60
26707;DHT22;14319;49.422;10.934;2023-04-24T12:18:53;12.70;64.60
26707;DHT22;14319;49.422;10.934;2023-04-24T12:20:53;12.80;64.40
26707;DHT22;14319;49.422;10.934;2023-04-24T12:22:56;12.80;63.30
26707;DHT22;14319;49.422;10.934;2023-04-24T12:26:58;12.90;60.20
26707;DHT22;14319;49.422;10.934;2023-04-24T12:29:01;12.80;59.80
26707;DHT22;14319;49.422;10.934;2023-04-24T12:31:03;12.90;59.80
26707;DHT22;14319;49.422;10.934;2023-04-24T12:33:04;12.70;61.70
26707;DHT22;14319;49.422;10.934;2023-04-24T12:35:05;12.70;60.60
26707;DHT22;14319;49.422;10.934;2023-04-24T12:37:13;12.90;61.20
26707;DHT22;14319;49.422;10.934;2023-04-24T12:39:17;13.00;60.60
26707;DHT22;14319;49.422;10.934;2023-04-24T12:41:18;12.70;59.90
26707;DHT22;14319;49.422;10.934;2023-04-24T12:43:20;12.70;61.00
26707;DHT22;14319;49.422;10.934;2023-04-24T12:45:20;12.80;60.80
26707;DHT22;14319;49.422;10.934;2023-04-24T12:47:24;13.10;63.80
26707;DHT22;14319;49.422;10.934;2023-04-24T12:49:25;12.90;61.00
26707;DHT22;14319;49.422;10.934;2023-04-24T12:51:25;13.10;59.90